This is the latest recevied weather packets stored in our database for station/object T77NM. If no packets are shown the sender has not sent any weather packets the latest 10 day(s).
| Time | Temp. | Humidity | Pressure | Rain* | Wind** | Luminosity | Snow |
|---|---|---|---|---|---|---|---|
| 1777960816 | 12.22° C | 80% | 1012.8 hPa | 0.51 mm | - | 35 W/m² | - |
| 1777959916 | 12.22° C | 80% | 1012.8 hPa | 0 mm | - | 39 W/m² | - |
| 1777952757 | 11.67° C | 82% | 1013.6 hPa | 0.76 mm | - | 0 W/m² | - |
| 1777946440 | 14.44° C | 58% | 1013.9 hPa | 0 mm | - | 0 W/m² | - |
| 1777941937 | 15° C | 59% | 1014.3 hPa | 0 mm | - | 0 W/m² | - |
| 1777937424 | 15° C | 58% | 1015.2 hPa | 0 mm | - | 0 W/m² | - |
| 1777936522 | 15° C | 60% | 1015.3 hPa | 0 mm | - | 0 W/m² | - |
| 1777935620 | 15.56° C | 62% | 1015.4 hPa | 0 mm | - | 0 W/m² | - |
| 1777927515 | 16.11° C | 55% | 1016.3 hPa | 0 mm | - | 0 W/m² | - |
| 1777926604 | 16.11° C | 56% | 1016.2 hPa | 0 mm | - | 0 W/m² | - |
| 1777924802 | 16.67° C | 55% | 1016.1 hPa | 0 mm | - | 0 W/m² | - |
| 1777923963 | 16.67° C | 54% | 1016.1 hPa | 0 mm | - | 0 W/m² | - |
| 1777920359 | 17.78° C | 46% | 1015.7 hPa | 0 mm | - | 0 W/m² | - |
| 1777917656 | 18.89° C | 42% | 1015.5 hPa | 0 mm | - | 12 W/m² | - |
| 1777916769 | 18.89° C | 40% | 1015.5 hPa | 0 mm | - | 25 W/m² | - |
| 1777914955 | 19.44° C | 37% | 1015.5 hPa | 0 mm | - | 53 W/m² | - |
| 1777910451 | 20° C | 52% | 1015.5 hPa | 0 mm | - | 130 W/m² | - |
| 1777908655 | 21.11° C | 52% | 1015.7 hPa | 0 mm | - | 220 W/m² | - |
| 1777905949 | 22.22° C | 49% | 1015.6 hPa | 0 mm | - | 605 W/m² | - |
| 1777905044 | 21.11° C | 47% | 1015.7 hPa | 0 mm | - | 476 W/m² | - |
| 1777896037 | 21.67° C | 48% | 1016.7 hPa | 0 mm | - | 1021 W/m² | - |
| 1777895137 | 21.67° C | 48% | 1016.8 hPa | 0 mm | - | 749 W/m² | - |
| 1777889735 | 22.22° C | 46% | 1017.3 hPa | 0 mm | - | 991 W/m² | - |
| 1777887027 | 21.11° C | 48% | 1017.5 hPa | 0 mm | - | 805 W/m² | - |
| 1777886126 | 21.11° C | 46% | 1017.5 hPa | 0 mm | - | 671 W/m² | - |
* Rain latest hour (hover to see other rain measurements)
** Current wind speed in m/s (hover to see current wind gust speed)